Time;durP1;ratioP1;P1;durP2;ratioP2;P2;SDS_P1;SDS_P2;PMS_P1;PMS_P2;Temp;Humidity;BMP_temperature;BMP_pressure;BME280_temperature;BME280_humidity;BME280_pressure;Samples;Min_cycle;Max_cycle;Signal;HPM_P1;HPM_P2
2022/10/20 00:01:07;;;;;;;9.60;6.55;;;;;;;16.27;43.96;99905.63;5071787;28;20100;-36
2022/10/20 00:03:33;;;;;;;8.43;5.93;;;;;;;16.24;43.91;99911.47;5071670;28;20444;-36
2022/10/20 00:06:12;;;;;;;10.55;6.35;;;;;;;16.52;43.70;99910.69;5071405;28;20032;-37
2022/10/20 00:08:39;;;;;;;9.48;6.35;;;;;;;16.55;43.38;99910.22;5071762;28;20028;-36
2022/10/20 00:11:05;;;;;;;9.23;6.28;;;;;;;16.36;44.63;99903.38;5071773;28;20024;-36
2022/10/20 00:13:31;;;;;;;12.43;7.10;;;;;;;16.39;45.24;99903.72;5070169;28;20108;-35
2022/10/20 00:15:58;;;;;;;12.40;7.15;;;;;;;16.64;44.19;99907.13;5071616;28;20032;-36
2022/10/20 00:18:24;;;;;;;9.43;7.07;;;;;;;16.40;45.31;99893.78;5071977;28;20020;-36
2022/10/20 00:20:50;;;;;;;10.55;7.50;;;;;;;16.23;45.73;99891.84;5071612;28;20075;-35
2022/10/20 00:23:16;;;;;;;12.32;7.07;;;;;;;16.50;45.45;99893.97;5071564;28;20441;-37
2022/10/20 00:25:42;;;;;;;11.50;7.25;;;;;;;16.66;45.49;99888.91;5071522;28;20531;-36
2022/10/20 00:28:07;;;;;;;9.73;7.10;;;;;;;16.61;45.51;99895.00;5071402;28;20024;-35
2022/10/20 00:30:33;;;;;;;11.15;7.30;;;;;;;16.60;46.09;99896.06;5071470;28;20432;-36
2022/10/20 00:32:59;;;;;;;11.77;7.22;;;;;;;16.60;46.81;99909.47;5071181;28;20052;-36
2022/10/20 00:35:25;;;;;;;12.50;8.10;;;;;;;16.59;46.90;99892.56;5071947;28;20020;-42
2022/10/20 00:37:50;;;;;;;12.68;7.53;;;;;;;16.56;47.16;99889.53;5071439;28;20028;-36
2022/10/20 00:40:15;;;;;;;13.13;8.30;;;;;;;16.76;46.69;99875.69;5071406;28;20032;-37
2022/10/20 00:42:44;;;;;;;14.20;7.80;;;;;;;17.07;45.63;99887.00;5074223;28;20032;-36
2022/10/20 00:45:21;;;;;;;12.95;7.70;;;;;;;17.10;45.96;99886.53;5075172;28;20064;-36
2022/10/20 00:48:03;;;;;;;13.85;7.50;;;;;;;16.90;47.11;99889.66;5075127;28;20097;-35
2022/10/20 00:50:33;;;;;;;11.95;8.15;;;;;;;17.17;46.71;99890.69;5074939;28;20032;-42
2022/10/20 00:53:00;;;;;;;12.55;7.60;;;;;;;17.12;46.24;99889.78;5075162;28;20074;-41
2022/10/20 00:55:28;;;;;;;12.13;7.72;;;;;;;17.36;46.13;99885.03;5075423;28;20046;-42
2022/10/20 00:57:57;;;;;;;11.10;7.97;;;;;;;17.15;46.84;99886.59;5075211;28;20033;-41
2022/10/20 01:00:23;;;;;;;14.90;8.18;;;;;;;17.31;46.58;99879.59;5075146;28;20498;-41
2022/10/20 01:02:51;;;;;;;12.48;8.05;;;;;;;17.33;46.61;99880.97;5074713;28;20039;-42
2022/10/20 01:05:17;;;;;;;14.38;8.63;;;;;;;17.55;46.35;99891.84;5074444;28;20043;-42
2022/10/20 01:07:42;;;;;;;11.32;7.75;;;;;;;17.43;46.48;99882.22;5074785;28;20107;-42
2022/10/20 01:10:09;;;;;;;12.63;8.25;;;;;;;17.17;47.20;99896.06;5074578;28;20096;-42
2022/10/20 01:12:51;;;;;;;17.92;8.27;;;;;;;17.04;47.55;99880.25;5073795;28;20123;-42
2022/10/20 01:15:39;;;;;;;20.17;8.68;;;;;;;17.07;47.88;99881.63;5073528;28;20024;-42
2022/10/20 01:18:16;;;;;;;11.80;8.35;;;;;;;17.39;46.85;99887.25;5073110;28;20032;-42
2022/10/20 01:21:20;;;;;;;12.77;8.55;;;;;;;17.19;48.01;99883.19;5073630;28;20174;-42
2022/10/20 01:24:18;;;;;;;18.40;8.90;;;;;;;17.52;47.70;99883.44;5073672;28;20538;-41
2022/10/20 01:27:05;;;;;;;17.48;9.40;;;;;;;17.32;48.19;99886.59;5070397;28;20040;-43
2022/10/20 01:29:39;;;;;;;12.07;8.52;;;;;;;17.45;48.17;99888.16;5073168;28;20028;-42
2022/10/20 01:32:34;;;;;;;13.50;9.45;;;;;;;17.51;48.01;99892.56;5072828;28;20024;-42
2022/10/20 01:35:23;;;;;;;21.98;9.57;;;;;;;17.18;48.99;99904.94;5073228;28;20468;-42
2022/10/20 01:38:03;;;;;;;15.70;9.35;;;;;;;16.99;49.47;99904.34;5053233;28;20024;-42
2022/10/20 01:40:49;;;;;;;;;;;;;;;17.25;49.43;99902.06;5054024;28;20470;-42
2022/10/20 01:43:18;;;;;;;16.27;9.80;;;;;;;17.27;49.34;99898.09;5053265;28;20257;-42
2022/10/20 01:45:46;;;;;;;11.90;9.27;;;;;;;17.33;49.26;99890.94;5053166;28;20318;-41
2022/10/20 01:48:15;;;;;;;13.43;9.20;;;;;;;17.24;49.86;99905.84;5052957;28;20382;-42
2022/10/20 01:50:42;;;;;;;14.95;10.38;;;;;;;17.35;49.07;99903.06;5053126;28;20029;-42
2022/10/20 01:53:09;;;;;;;16.85;9.98;;;;;;;17.22;49.90;99903.38;5052314;28;20108;-42
2022/10/20 01:55:37;;;;;;;14.95;10.50;;;;;;;17.42;49.90;99911.00;5053255;28;20017;-40
2022/10/20 01:58:12;;;;;;;17.13;10.68;;;;;;;17.46;49.79;99909.44;5053271;28;20021;-41
2022/10/20 02:00:38;;;;;;;17.20;10.30;;;;;;;17.28;50.49;99915.03;5070952;28;20032;-41
2022/10/20 02:03:13;;;;;;;16.58;10.52;;;;;;;17.22;50.28;99908.75;5072812;28;20121;-41
2022/10/20 02:05:44;;;;;;;15.25;10.55;;;;;;;17.10;51.09;99911.53;5073007;28;20489;-43
2022/10/20 02:08:27;;;;;;;14.75;10.35;;;;;;;17.05;51.04;99908.75;5072411;28;20048;-41
2022/10/20 02:10:57;;;;;;;16.40;10.60;;;;;;;16.98;50.62;99910.75;5072807;28;20043;-43
2022/10/20 02:13:25;;;;;;;18.90;10.65;;;;;;;17.05;50.92;99927.56;5072706;28;20037;-43
2022/10/20 02:15:54;;;;;;;16.40;10.77;;;;;;;17.08;51.46;99923.59;5072693;28;20028;-42
2022/10/20 02:18:34;;;;;;;15.35;11.23;;;;;;;17.44;50.64;99927.69;5072489;28;20495;-42
2022/10/20 02:21:01;;;;;;;14.88;11.30;;;;;;;17.34;50.27;99927.50;5072401;28;20511;-42
2022/10/20 02:23:30;;;;;;;13.60;10.77;;;;;;;17.22;51.05;99927.59;5072573;28;20129;-42
2022/10/20 02:25:59;;;;;;;15.35;11.43;;;;;;;16.91;52.34;99921.69;5072364;28;20385;-41
2022/10/20 02:28:27;;;;;;;19.23;12.27;;;;;;;17.04;51.58;99920.56;5072492;28;20182;-42
2022/10/20 02:30:54;;;;;;;14.60;11.65;;;;;;;17.11;51.23;99931.97;5072081;28;20048;-43
2022/10/20 02:33:21;;;;;;;16.30;11.55;;;;;;;16.80;51.77;99934.06;5072340;28;20468;-42
2022/10/20 02:35:55;;;;;;;15.73;11.18;;;;;;;16.54;53.47;99940.00;5072011;28;20027;-42
2022/10/20 02:38:21;;;;;;;15.23;11.07;;;;;;;16.69;52.67;99932.22;5072193;28;20055;-42
2022/10/20 02:40:46;;;;;;;16.92;11.52;;;;;;;17.05;52.01;99934.81;5072281;28;20024;-42
2022/10/20 02:43:12;;;;;;;16.48;11.90;;;;;;;17.13;51.64;99929.03;5072279;28;20020;-42
2022/10/20 02:45:37;;;;;;;17.90;11.57;;;;;;;17.12;51.92;99944.38;5071626;28;20476;-42
2022/10/20 02:48:03;;;;;;;16.55;11.52;;;;;;;16.53;53.76;99941.88;5071208;28;20024;-42
2022/10/20 02:50:28;;;;;;;22.08;11.60;;;;;;;16.78;52.92;99941.56;5070066;28;20039;-41
2022/10/20 02:52:53;;;;;;;14.13;11.77;;;;;;;16.68;53.49;99952.13;5071576;28;20108;-41
2022/10/20 02:55:19;;;;;;;17.70;12.27;;;;;;;16.65;52.88;99947.22;5071209;28;20103;-43
2022/10/20 02:57:44;;;;;;;20.02;12.40;;;;;;;16.51;53.79;99949.34;5071583;28;20099;-42
2022/10/20 03:00:10;;;;;;;18.42;11.88;;;;;;;16.26;54.46;99949.66;5071858;28;20032;-42
2022/10/20 03:02:36;;;;;;;20.52;12.02;;;;;;;16.23;54.11;99955.47;5071567;28;20037;-41
2022/10/20 03:05:02;;;;;;;21.17;11.85;;;;;;;16.22;54.49;99964.56;5070972;28;20404;-42
2022/10/20 03:07:28;;;;;;;17.90;11.93;;;;;;;16.34;54.26;99975.31;5069759;28;20028;-42
2022/10/20 03:09:53;;;;;;;23.85;11.25;;;;;;;16.58;53.79;99978.75;5071661;28;20100;-42
2022/10/20 03:12:19;;;;;;;15.13;11.90;;;;;;;16.49;53.71;99964.91;5071385;28;20418;-42
2022/10/20 03:14:44;;;;;;;15.13;11.95;;;;;;;16.41;54.00;99976.81;5071395;28;20024;-42
2022/10/20 03:17:09;;;;;;;18.20;12.50;;;;;;;16.33;54.70;99974.47;5071258;28;20511;-42
2022/10/20 03:19:35;;;;;;;16.73;12.38;;;;;;;16.35;54.44;99964.31;5071304;28;20024;-42
2022/10/20 03:22:00;;;;;;;22.52;12.45;;;;;;;16.62;54.08;99979.94;5070708;28;20045;-42
2022/10/20 03:24:26;;;;;;;16.33;12.35;;;;;;;16.10;55.11;99978.00;5071458;28;20028;-42
2022/10/20 03:26:51;;;;;;;17.90;12.60;;;;;;;16.30;54.58;99991.09;5071244;28;20032;-42
2022/10/20 03:29:17;;;;;;;17.02;12.68;;;;;;;16.32;55.00;99988.16;5071221;28;20043;-42
2022/10/20 03:31:42;;;;;;;17.90;12.38;;;;;;;16.12;55.26;99999.25;5071319;28;20024;-42
2022/10/20 03:34:08;;;;;;;18.02;13.05;;;;;;;16.19;55.52;99991.91;5071020;28;20353;-42
2022/10/20 03:36:33;;;;;;;16.73;12.55;;;;;;;16.15;55.39;100006.84;5069651;28;20448;-42
2022/10/20 03:38:59;;;;;;;17.92;13.70;;;;;;;16.15;55.77;99993.44;5071435;28;20028;-42
2022/10/20 03:41:24;;;;;;;17.17;12.52;;;;;;;16.18;55.94;99995.63;5071247;28;20032;-42
2022/10/20 03:43:49;;;;;;;15.80;12.88;;;;;;;16.34;55.14;100010.22;5070978;28;20052;-43
2022/10/20 03:46:15;;;;;;;17.27;12.75;;;;;;;16.35;55.47;100011.84;5071307;28;20108;-42
2022/10/20 03:48:40;;;;;;;16.33;12.60;;;;;;;16.51;54.42;100004.97;5071354;28;20079;-44
2022/10/20 03:51:07;;;;;;;22.08;12.93;;;;;;;16.50;54.67;100011.38;5069890;28;20140;-43
2022/10/20 03:53:32;;;;;;;17.50;12.18;;;;;;;16.38;55.22;100011.38;5067589;28;20031;-42
2022/10/20 03:55:58;;;;;;;19.60;13.45;;;;;;;16.08;55.85;100008.81;5071336;28;20020;-41
2022/10/20 03:58:23;;;;;;;16.55;12.82;;;;;;;16.50;54.63;100012.19;5070956;28;20028;-42
2022/10/20 04:00:49;;;;;;;17.88;12.82;;;;;;;16.25;55.42;100017.81;5071058;28;20051;-43
2022/10/20 04:03:15;;;;;;;18.25;12.90;;;;;;;16.50;54.70;100019.44;5071110;28;20028;-42
2022/10/20 04:05:40;;;;;;;15.18;13.13;;;;;;;16.21;55.10;100020.13;5070516;28;20036;-41
2022/10/20 04:08:06;;;;;;;15.88;12.48;;;;;;;16.33;54.71;100022.00;5070502;28;20098;-41
2022/10/20 04:10:32;;;;;;;17.42;11.70;;;;;;;16.11;55.04;100008.38;5070988;28;20028;-42
2022/10/20 04:13:01;;;;;;;18.38;12.60;;;;;;;16.43;54.20;100014.19;5070503;28;20463;-41
2022/10/20 04:15:27;;;;;;;16.92;12.15;;;;;;;16.61;53.50;100015.91;5070898;28;20017;-43
2022/10/20 04:17:53;;;;;;;14.82;11.20;;;;;;;16.57;53.89;100022.81;5073807;28;20101;-42
2022/10/20 04:20:18;;;;;;;18.95;11.48;;;;;;;16.37;54.22;100024.00;5082552;28;20103;-41
2022/10/20 04:22:44;;;;;;;20.65;12.52;;;;;;;16.18;54.80;100020.63;5091537;28;20075;-42
2022/10/20 04:25:11;;;;;;;16.48;11.40;;;;;;;16.08;55.00;100023.06;5085378;28;20456;-41
2022/10/20 04:27:37;;;;;;;15.80;11.93;;;;;;;16.06;54.64;100024.34;5079879;28;20396;-41
2022/10/20 04:30:04;;;;;;;29.67;20.98;;;;;;;16.33;54.47;100025.50;5084505;28;20071;-41
2022/10/20 04:32:29;;;;;;;23.15;15.15;;;;;;;16.46;53.50;100029.81;5074610;28;20032;-42
2022/10/20 04:34:55;;;;;;;18.65;12.20;;;;;;;16.34;53.89;100027.16;5074424;28;20020;-41
2022/10/20 04:37:20;;;;;;;26.52;14.77;;;;;;;16.60;53.06;100036.59;5074696;28;20452;-41
2022/10/20 04:39:46;;;;;;;17.75;11.13;;;;;;;16.42;53.46;100037.53;5074786;28;20473;-41
2022/10/20 04:42:11;;;;;;;12.98;10.63;;;;;;;16.71;52.62;100039.47;5070511;28;20577;-42
2022/10/20 04:44:36;;;;;;;15.13;11.10;;;;;;;16.46;52.89;100032.50;5064961;28;20029;-41
2022/10/20 04:47:02;;;;;;;16.88;10.60;;;;;;;16.40;52.96;100044.19;5065750;28;20052;-43
2022/10/20 04:49:27;;;;;;;19.30;13.30;;;;;;;16.35;52.67;100041.38;5052690;28;20102;-41
2022/10/20 04:51:53;;;;;;;18.80;13.07;;;;;;;16.61;52.54;100048.94;5052760;28;20048;-41
2022/10/20 04:54:18;;;;;;;19.20;10.35;;;;;;;16.36;52.34;100059.97;5051743;28;20485;-42
2022/10/20 04:56:43;;;;;;;14.27;9.80;;;;;;;16.30;52.33;100066.28;5051326;28;20046;-41
2022/10/20 04:59:09;;;;;;;24.75;15.75;;;;;;;16.42;51.81;100063.56;5050880;28;20229;-43
2022/10/20 05:01:34;;;;;;;14.68;10.30;;;;;;;16.76;51.75;100067.28;5050659;28;20520;-42
2022/10/20 05:04:00;;;;;;;16.15;9.57;;;;;;;16.73;51.08;100070.44;5050486;28;20389;-43
2022/10/20 05:06:28;;;;;;;19.60;10.25;;;;;;;16.68;51.57;100075.72;5050529;28;20365;-42
2022/10/20 05:08:56;;;;;;;18.05;9.23;;;;;;;16.94;50.35;100085.13;5051259;28;20027;-42
2022/10/20 05:11:24;;;;;;;12.50;9.65;;;;;;;16.92;50.87;100092.63;5051401;28;20036;-42
2022/10/20 05:13:50;;;;;;;15.15;9.88;;;;;;;17.10;50.56;100093.56;5052039;28;20039;-43
2022/10/20 05:16:16;;;;;;;10.20;8.50;;;;;;;16.98;50.70;100088.19;5051730;28;20017;-43
2022/10/20 05:18:42;;;;;;;11.75;9.00;;;;;;;17.31;49.15;100102.84;5051994;28;20021;-42
2022/10/20 05:21:17;;;;;;;15.68;9.30;;;;;;;17.58;48.96;100103.06;5060217;28;20082;-42
2022/10/20 05:23:43;;;;;;;16.48;9.23;;;;;;;17.31;49.41;100109.03;5072296;28;20036;-42
2022/10/20 05:26:16;;;;;;;13.63;9.48;;;;;;;17.31;49.13;100109.03;5072100;28;20106;-43
2022/10/20 05:28:44;;;;;;;15.63;9.32;;;;;;;17.54;48.88;100115.38;5071553;28;20021;-42
2022/10/20 05:31:09;;;;;;;15.27;8.63;;;;;;;17.78;48.47;100119.59;5069910;28;20107;-42
2022/10/20 05:33:36;;;;;;;15.05;8.60;;;;;;;17.91;47.80;100115.81;5068106;28;20104;-42
2022/10/20 05:36:07;;;;;;;17.00;9.05;;;;;;;18.10;47.47;100120.97;5072305;28;20024;-41
2022/10/20 05:38:34;;;;;;;14.57;8.95;;;;;;;18.24;46.90;100119.59;5072492;28;20025;-43
2022/10/20 05:41:11;;;;;;;14.45;9.23;;;;;;;18.30;46.56;100129.38;5068583;28;20111;-44
2022/10/20 05:43:37;;;;;;;12.70;9.18;;;;;;;18.30;46.92;100142.84;5063482;28;20151;-42
2022/10/20 05:46:03;;;;;;;14.68;9.13;;;;;;;18.21;46.92;100138.13;5064638;28;20036;-41
2022/10/20 05:48:28;;;;;;;12.38;8.77;;;;;;;18.55;46.06;100142.44;5072488;28;20484;-43
2022/10/20 05:50:54;;;;;;;12.75;8.68;;;;;;;18.90;45.00;100148.63;5072182;28;20029;-42
2022/10/20 05:53:19;;;;;;;9.95;8.30;;;;;;;18.89;45.24;100153.19;5071777;28;20028;-43
2022/10/20 05:55:44;;;;;;;14.18;8.57;;;;;;;19.23;44.46;100168.47;5071857;28;20028;-42
2022/10/20 05:58:10;;;;;;;13.52;8.57;;;;;;;18.83;45.12;100158.75;5071277;28;20028;-42
2022/10/20 06:00:41;;;;;;;14.65;8.77;;;;;;;18.97;45.19;100165.44;5070552;28;20031;-42
2022/10/20 06:03:07;;;;;;;15.40;8.60;;;;;;;19.64;43.67;100172.47;5070219;28;20032;-43
2022/10/20 06:05:33;;;;;;;11.82;8.32;;;;;;;19.90;43.02;100173.59;5069671;28;20025;-43
2022/10/20 06:07:58;;;;;;;12.18;8.65;;;;;;;19.82;43.36;100190.25;5069633;28;20035;-42
2022/10/20 06:10:24;;;;;;;12.80;8.18;;;;;;;19.81;42.96;100188.63;5069509;28;20067;-42
2022/10/20 06:12:49;;;;;;;17.50;8.35;;;;;;;19.81;42.95;100198.59;5070131;28;20108;-41
2022/10/20 06:15:15;;;;;;;14.65;8.45;;;;;;;20.12;42.38;100197.03;5069873;28;20123;-43
2022/10/20 06:17:40;;;;;;;18.85;8.38;;;;;;;19.89;42.92;100200.84;5069894;28;20075;-44
2022/10/20 06:20:06;;;;;;;15.82;8.20;;;;;;;20.20;42.69;100191.19;5070176;28;20058;-43
2022/10/20 06:22:31;;;;;;;14.85;10.13;;;;;;;20.36;42.35;100194.81;5071076;28;20050;-44
2022/10/20 06:24:57;;;;;;;12.77;8.00;;;;;;;20.97;41.18;100204.50;5070947;28;20409;-43
2022/10/20 06:27:22;;;;;;;13.57;8.25;;;;;;;20.95;40.49;100193.13;5070934;28;20325;-42
2022/10/20 06:29:47;;;;;;;19.00;8.00;;;;;;;21.08;40.20;100200.78;5070948;28;20421;-43
2022/10/20 06:32:16;;;;;;;12.13;7.50;;;;;;;20.60;41.13;100205.28;5070578;28;20029;-44
2022/10/20 06:34:42;;;;;;;15.82;7.72;;;;;;;20.92;40.45;100217.97;5070597;28;20156;-45
2022/10/20 06:37:08;;;;;;;12.82;7.60;;;;;;;20.94;40.17;100216.63;5070408;28;20206;-44
2022/10/20 06:39:34;;;;;;;10.15;7.70;;;;;;;21.31;39.67;100223.09;5069125;28;20172;-42
2022/10/20 06:42:00;;;;;;;16.27;7.38;;;;;;;21.95;38.78;100227.41;5071286;28;20032;-43
2022/10/20 06:44:26;;;;;;;12.05;7.45;;;;;;;21.99;38.09;100212.22;5072587;28;20051;-43
2022/10/20 06:46:51;;;;;;;11.60;7.30;;;;;;;21.94;38.13;100223.88;5070771;28;20433;-44
2022/10/20 06:49:17;;;;;;;12.63;6.88;;;;;;;21.92;38.07;100234.19;5088418;28;20500;-43
2022/10/20 06:51:43;;;;;;;15.50;7.53;;;;;;;22.42;37.58;100235.34;5075583;28;20454;-43
2022/10/20 06:54:08;;;;;;;10.60;7.25;;;;;;;21.57;38.52;100232.97;5071597;28;20040;-42
2022/10/20 06:56:35;;;;;;;15.85;6.82;;;;;;;22.31;37.50;100239.16;5074605;28;20074;-43
2022/10/20 06:59:01;;;;;;;10.38;6.78;;;;;;;22.74;36.83;100233.47;5067286;28;20032;-44
2022/10/20 07:01:33;;;;;;;15.75;6.78;;;;;;;22.63;36.56;100225.31;5070334;28;20081;-43
2022/10/20 07:04:03;;;;;;;13.77;7.00;;;;;;;22.97;35.79;100224.75;5070121;28;20040;-44
2022/10/20 07:06:31;;;;;;;13.40;6.70;;;;;;;23.30;35.51;100238.81;5069797;28;20032;-43
2022/10/20 07:08:57;;;;;;;8.85;6.68;;;;;;;23.52;35.10;100237.66;5075378;28;20076;-43
2022/10/20 07:11:28;;;;;;;14.73;6.78;;;;;;;23.48;35.02;100237.41;5085678;28;20033;-43
2022/10/20 07:13:56;;;;;;;11.20;6.82;;;;;;;23.11;35.28;100233.16;5075445;28;20020;-42
2022/10/20 07:16:23;;;;;;;11.25;6.38;;;;;;;23.15;35.26;100238.84;5075161;28;20148;-43
2022/10/20 07:18:49;;;;;;;12.75;6.10;;;;;;;23.83;34.29;100249.22;5087055;28;20024;-45
2022/10/20 07:21:18;;;;;;;11.23;6.18;;;;;;;24.04;34.07;100246.41;5087776;28;20052;-45
2022/10/20 07:23:44;;;;;;;13.75;6.70;;;;;;;23.22;34.77;100247.53;5069361;28;20035;-42
2022/10/20 07:26:15;;;;;;;12.43;6.57;;;;;;;22.89;35.12;100246.22;5071594;28;20028;-43
2022/10/20 07:28:44;;;;;;;8.77;6.40;;;;;;;22.87;35.11;100241.06;5069938;28;20040;-43
2022/10/20 07:31:13;;;;;;;13.70;6.78;;;;;;;22.83;35.48;100243.50;5052922;28;20079;-44
2022/10/20 07:33:39;;;;;;;10.50;6.28;;;;;;;23.17;35.05;100240.22;5070650;28;20115;-43
2022/10/20 07:36:16;;;;;;;10.60;7.00;;;;;;;23.51;34.57;100239.56;5068893;28;20165;-43
2022/10/20 07:38:42;;;;;;;9.50;6.30;;;;;;;22.69;35.60;100249.75;5068849;28;20028;-44
2022/10/20 07:41:08;;;;;;;10.90;6.80;;;;;;;23.09;34.94;100253.53;5068556;28;20025;-42
2022/10/20 07:43:34;;;;;;;20.98;6.53;;;;;;;23.00;35.02;100255.97;5068249;28;20051;-43
2022/10/20 07:45:59;;;;;;;9.35;6.28;;;;;;;22.88;34.82;100229.09;5068354;28;20032;-41
2022/10/20 07:48:25;;;;;;;18.75;6.38;;;;;;;22.32;35.69;100248.91;5068561;28;20109;-43
2022/10/20 07:50:51;;;;;;;12.98;6.18;;;;;;;22.70;35.35;100240.53;5068582;28;20044;-42
2022/10/20 07:53:16;;;;;;;10.05;6.00;;;;;;;23.12;34.91;100245.66;5068866;28;20032;-44
2022/10/20 07:55:42;;;;;;;9.65;5.88;;;;;;;23.26;34.32;100245.88;5069204;28;20035;-44
2022/10/20 07:58:08;;;;;;;9.88;5.90;;;;;;;23.23;34.56;100247.25;5069905;28;20038;-44
2022/10/20 08:00:33;;;;;;;8.32;5.88;;;;;;;23.64;34.06;100246.31;5070421;28;20140;-43
2022/10/20 08:02:59;;;;;;;13.95;6.10;;;;;;;24.51;32.71;100259.44;5070034;28;20505;-43
2022/10/20 08:05:25;;;;;;;11.65;6.00;;;;;;;23.66;33.43;100254.19;5070210;28;20023;-42
2022/10/20 08:07:51;;;;;;;11.00;5.57;;;;;;;23.77;33.35;100256.56;5070655;28;20024;-42
2022/10/20 08:10:16;;;;;;;11.38;5.65;;;;;;;23.58;33.44;100256.38;5071103;28;20028;-44
2022/10/20 08:12:42;;;;;;;10.55;5.00;;;;;;;23.11;33.65;100257.59;5071112;28;20043;-45
2022/10/20 08:15:07;;;;;;;13.05;6.00;;;;;;;22.82;34.41;100255.44;5070968;28;20021;-44
2022/10/20 08:17:33;;;;;;;18.13;5.82;;;;;;;22.76;34.49;100247.59;5070381;28;20052;-44
2022/10/20 08:19:58;;;;;;;11.82;5.28;;;;;;;23.67;33.02;100245.75;5070155;28;20107;-45
2022/10/20 08:22:24;;;;;;;8.50;5.10;;;;;;;23.38;33.23;100248.28;5069938;28;20040;-44
2022/10/20 08:24:49;;;;;;;6.55;5.20;;;;;;;23.16;33.45;100243.22;5069997;28;20043;-44
2022/10/20 08:27:14;;;;;;;16.17;5.50;;;;;;;23.30;33.54;100244.25;5069898;28;20111;-44
2022/10/20 08:29:40;;;;;;;10.27;5.43;;;;;;;23.50;33.17;100248.00;5069956;28;20044;-42
2022/10/20 08:32:06;;;;;;;9.43;5.30;;;;;;;23.68;32.41;100235.69;5069616;28;20020;-43
2022/10/20 08:34:31;;;;;;;10.18;5.40;;;;;;;23.60;32.52;100247.94;5069959;28;20502;-43
2022/10/20 08:36:56;;;;;;;10.68;5.03;;;;;;;23.09;33.21;100239.97;5069989;28;20024;-42
2022/10/20 08:39:22;;;;;;;8.52;5.43;;;;;;;23.54;32.74;100235.50;5070149;28;20032;-45
2022/10/20 08:41:49;;;;;;;8.95;4.93;;;;;;;23.33;33.25;100226.59;5070257;28;20020;-44
2022/10/20 08:44:22;;;;;;;12.07;5.32;;;;;;;23.63;32.45;100220.25;5070652;28;20025;-43
2022/10/20 08:46:48;;;;;;;10.00;5.38;;;;;;;23.79;31.97;100229.16;5070553;28;20043;-45
2022/10/20 08:49:27;;;;;;;13.98;4.95;;;;;;;22.68;33.68;100229.16;5070969;28;20460;-44
2022/10/20 08:51:53;;;;;;;9.98;5.20;;;;;;;23.30;33.17;100236.09;5070776;28;20040;-43
2022/10/20 08:54:19;;;;;;;9.38;4.88;;;;;;;23.30;33.00;100233.38;5070974;28;20047;-44
2022/10/20 08:56:45;;;;;;;9.30;5.18;;;;;;;23.56;32.81;100238.75;5070561;28;20081;-43
2022/10/20 08:59:24;;;;;;;10.88;4.90;;;;;;;23.98;31.95;100229.31;5070494;28;20546;-45
2022/10/20 09:01:49;;;;;;;8.95;5.03;;;;;;;23.97;31.73;100228.50;5070670;28;20028;-44
2022/10/20 09:04:21;;;;;;;12.20;5.05;;;;;;;23.88;31.87;100230.19;5073812;28;20028;-43
2022/10/20 09:06:52;;;;;;;9.90;4.90;;;;;;;24.05;31.51;100235.25;5073932;28;20108;-46
2022/10/20 09:09:20;;;;;;;5.15;4.53;;;;;;;23.60;32.27;100223.50;5074307;28;20111;-42
2022/10/20 09:11:46;;;;;;;14.63;4.88;;;;;;;23.83;31.86;100235.66;5073254;28;20051;-43
2022/10/20 09:14:12;;;;;;;6.70;5.00;;;;;;;23.87;31.67;100246.78;5074476;28;20024;-45
2022/10/20 09:16:40;;;;;;;10.15;4.75;;;;;;;24.63;31.05;100234.56;5073713;28;20385;-43
2022/10/20 09:19:15;;;;;;;16.50;4.95;;;;;;;24.84;30.58;100237.94;5073826;28;20028;-43
2022/10/20 09:21:42;;;;;;;8.43;5.05;;;;;;;25.06;30.43;100236.66;5073406;28;20059;-43
2022/10/20 09:24:08;;;;;;;7.22;4.80;;;;;;;25.21;30.15;100224.75;5073631;28;20024;-44
2022/10/20 09:26:44;;;;;;;11.43;4.80;;;;;;;24.88;30.27;100224.56;5073426;28;20035;-43
2022/10/20 09:29:11;;;;;;;11.23;4.90;;;;;;;25.02;30.01;100221.97;5073729;28;20421;-44
2022/10/20 09:31:40;;;;;;;8.40;4.72;;;;;;;25.30;29.63;100217.59;5073877;28;20032;-44
2022/10/20 09:34:24;;;;;;;8.00;4.40;;;;;;;25.25;29.52;100229.38;5073920;28;20104;-45
2022/10/20 09:37:00;;;;;;;8.77;4.53;;;;;;;25.00;29.49;100216.84;5073358;28;20028;-43
2022/10/20 09:39:28;;;;;;;6.15;4.40;;;;;;;25.12;29.77;100230.84;5073619;28;20024;-44
2022/10/20 09:42:04;;;;;;;9.65;4.80;;;;;;;24.87;29.86;100222.97;5073365;28;20020;-47
2022/10/20 09:44:34;;;;;;;6.82;4.40;;;;;;;24.62;30.03;100230.25;5073263;28;20040;-43
2022/10/20 09:47:01;;;;;;;6.05;4.35;;;;;;;24.64;29.88;100213.66;5072895;28;20032;-43
2022/10/20 09:49:45;;;;;;;4.75;4.03;;;;;;;24.96;29.64;100219.31;5073495;28;20035;-48
2022/10/20 09:52:22;;;;;;;9.30;4.38;;;;;;;24.47;30.21;100208.59;5073541;28;20098;-44
2022/10/20 09:55:06;;;;;;;5.68;4.10;;;;;;;24.83;29.51;100219.16;5073846;28;20373;-43
2022/10/20 09:57:31;;;;;;;7.50;4.40;;;;;;;24.71;29.34;100216.81;5073461;28;20035;-43
2022/10/20 09:59:57;;;;;;;5.57;4.07;;;;;;;24.77;28.87;100213.78;5073328;28;20024;-43
2022/10/20 10:02:22;;;;;;;9.65;4.30;;;;;;;24.56;29.10;100218.59;5073527;28;20051;-44
2022/10/20 10:04:50;;;;;;;8.45;4.40;;;;;;;24.84;29.22;100212.63;5073332;28;20028;-43
2022/10/20 10:07:24;;;;;;;6.93;3.90;;;;;;;25.12;28.65;100213.72;5072981;28;20511;-42
2022/10/20 10:10:25;;;;;;;6.20;4.10;;;;;;;24.88;29.11;100219.13;5073342;28;20119;-44
2022/10/20 10:12:53;;;;;;;11.13;4.27;;;;;;;24.94;28.73;100221.50;5071180;28;20420;-43
2022/10/20 10:15:21;;;;;;;21.40;14.15;;;;;;;25.04;28.32;100212.44;5072103;28;20079;-45
2022/10/20 10:17:47;;;;;;;6.30;4.30;;;;;;;25.44;28.05;100201.38;5072570;28;20024;-43
2022/10/20 10:20:12;;;;;;;5.03;4.10;;;;;;;25.20;28.12;100210.34;5071896;28;20032;-44
2022/10/20 10:22:39;;;;;;;8.15;4.28;;;;;;;25.16;27.96;100210.09;5071951;28;20435;-44
2022/10/20 10:25:06;;;;;;;8.70;4.30;;;;;;;25.72;27.60;100203.19;5072146;28;20120;-43
2022/10/20 10:27:35;;;;;;;6.88;4.28;;;;;;;25.31;28.22;100203.72;5072244;28;20033;-44
2022/10/20 10:30:15;;;;;;;12.33;4.17;;;;;;;25.49;27.23;100201.31;5072545;28;20032;-44
2022/10/20 10:32:46;;;;;;;6.93;3.70;;;;;;;25.50;27.00;100198.28;5072141;28;20032;-46
2022/10/20 10:35:32;;;;;;;4.70;3.70;;;;;;;25.53;27.29;100191.44;5071676;28;20031;-44
2022/10/20 10:37:59;;;;;;;6.40;3.65;;;;;;;26.31;26.69;100187.34;5072181;28;20039;-42
2022/10/20 10:41:12;;;;;;;12.35;4.30;;;;;;;26.29;26.58;100186.84;5071944;28;20099;-46
2022/10/20 10:43:43;;;;;;;11.65;3.78;;;;;;;26.44;26.33;100180.28;5063046;28;20070;-44
2022/10/20 10:46:36;;;;;;;4.95;3.92;;;;;;;26.14;25.70;100184.31;5072078;28;20025;-45
2022/10/20 10:49:01;;;;;;;19.38;4.68;;;;;;;25.86;26.21;100189.63;5071549;28;20050;-44
2022/10/20 10:51:50;;;;;;;5.03;4.00;;;;;;;26.23;25.88;100179.81;5072185;28;20500;-42
2022/10/20 10:54:23;;;;;;;7.88;3.85;;;;;;;26.05;26.04;100169.78;5072091;28;20094;-43
2022/10/20 10:56:53;;;;;;;5.88;3.72;;;;;;;25.75;26.64;100169.09;5071722;28;20031;-44
2022/10/20 10:59:23;;;;;;;6.10;3.83;;;;;;;25.90;26.35;100173.50;5071008;28;20028;-44
2022/10/20 11:02:11;;;;;;;7.35;3.67;;;;;;;25.79;26.55;100164.66;5071787;28;20539;-45
2022/10/20 11:04:49;;;;;;;9.32;4.00;;;;;;;25.55;26.84;100175.59;5071881;28;20028;-42
2022/10/20 11:07:23;;;;;;;7.03;3.53;;;;;;;25.05;26.78;100167.75;5071231;28;20048;-44
2022/10/20 11:10:04;;;;;;;5.93;3.50;;;;;;;25.44;26.59;100168.69;5071535;28;20081;-43
2022/10/20 11:12:57;;;;;;;5.65;4.00;;;;;;;25.94;25.90;100166.38;5071424;28;20031;-44
2022/10/20 11:15:52;;;;;;;7.88;3.80;;;;;;;25.99;26.13;100154.56;5071671;28;20024;-43
2022/10/20 11:18:43;;;;;;;4.97;3.72;;;;;;;26.02;25.65;100160.25;5055566;28;20115;-43
2022/10/20 11:21:41;;;;;;;7.15;3.75;;;;;;;26.07;25.50;100151.19;5070936;28;20056;-42
2022/10/20 11:24:27;;;;;;;13.15;3.63;;;;;;;26.43;25.10;100148.69;5071271;28;20166;-43
2022/10/20 11:27:02;;;;;;;3.92;3.30;;;;;;;26.13;25.83;100142.63;5070941;28;20082;-44
2022/10/20 11:29:36;;;;;;;4.97;3.28;;;;;;;26.12;25.61;100142.91;5071400;28;20029;-43